sensor_id;sensor_type;location;lat;lon;timestamp;P1;durP1;ratioP1;P2;durP2;ratioP2
74064;SDS011;62421;51.412;5.432;2022-09-09T00:00:58;6.17;;;2.10;;
74064;SDS011;62421;51.412;5.432;2022-09-09T00:03:26;7.50;;;2.22;;
74064;SDS011;62421;51.412;5.432;2022-09-09T00:11:26;13.87;;;2.50;;
74064;SDS011;62421;51.412;5.432;2022-09-09T00:14:02;5.13;;;1.90;;
74064;SDS011;62421;51.412;5.432;2022-09-09T00:16:34;8.57;;;1.67;;
74064;SDS011;62421;51.412;5.432;2022-09-09T00:19:07;5.00;;;2.22;;
74064;SDS011;62421;51.412;5.432;2022-09-09T00:24:51;6.43;;;2.03;;
74064;SDS011;62421;51.412;5.432;2022-09-09T00:30:31;5.45;;;1.90;;
74064;SDS011;62421;51.412;5.432;2022-09-09T00:33:00;6.25;;;2.15;;
74064;SDS011;62421;51.412;5.432;2022-09-09T00:35:36;5.68;;;2.08;;
74064;SDS011;62421;51.412;5.432;2022-09-09T00:40:53;4.63;;;1.80;;
74064;SDS011;62421;51.412;5.432;2022-09-09T00:48:26;4.78;;;1.70;;
74064;SDS011;62421;51.412;5.432;2022-09-09T00:51:23;4.97;;;1.85;;
74064;SDS011;62421;51.412;5.432;2022-09-09T00:54:03;4.72;;;1.73;;
74064;SDS011;62421;51.412;5.432;2022-09-09T00:56:32;5.67;;;1.93;;
74064;SDS011;62421;51.412;5.432;2022-09-09T01:01:35;9.40;;;2.00;;
74064;SDS011;62421;51.412;5.432;2022-09-09T01:04:01;4.72;;;2.20;;
74064;SDS011;62421;51.412;5.432;2022-09-09T01:06:34;4.63;;;1.93;;
74064;SDS011;62421;51.412;5.432;2022-09-09T01:14:16;7.18;;;1.90;;
74064;SDS011;62421;51.412;5.432;2022-09-09T01:16:56;6.28;;;2.30;;
74064;SDS011;62421;51.412;5.432;2022-09-09T01:27:51;5.35;;;2.45;;
74064;SDS011;62421;51.412;5.432;2022-09-09T01:30:20;8.90;;;2.40;;
74064;SDS011;62421;51.412;5.432;2022-09-09T01:32:48;7.97;;;2.47;;
74064;SDS011;62421;51.412;5.432;2022-09-09T01:38:10;7.18;;;2.58;;
74064;SDS011;62421;51.412;5.432;2022-09-09T01:40:36;7.03;;;2.58;;
74064;SDS011;62421;51.412;5.432;2022-09-09T01:43:02;9.90;;;2.47;;
74064;SDS011;62421;51.412;5.432;2022-09-09T01:45:28;9.90;;;2.65;;
74064;SDS011;62421;51.412;5.432;2022-09-09T01:47:53;8.30;;;2.50;;
74064;SDS011;62421;51.412;5.432;2022-09-09T01:50:19;5.70;;;2.30;;
74064;SDS011;62421;51.412;5.432;2022-09-09T01:52:45;5.33;;;1.97;;
74064;SDS011;62421;51.412;5.432;2022-09-09T01:55:15;8.95;;;2.38;;
74064;SDS011;62421;51.412;5.432;2022-09-09T02:00:31;4.97;;;1.52;;
74064;SDS011;62421;51.412;5.432;2022-09-09T02:05:40;4.67;;;2.20;;
74064;SDS011;62421;51.412;5.432;2022-09-09T02:10:55;10.35;;;2.47;;
74064;SDS011;62421;51.412;5.432;2022-09-09T02:13:22;8.23;;;2.38;;
74064;SDS011;62421;51.412;5.432;2022-09-09T02:15:58;7.57;;;2.70;;
74064;SDS011;62421;51.412;5.432;2022-09-09T02:18:29;11.65;;;3.28;;
74064;SDS011;62421;51.412;5.432;2022-09-09T02:20:59;7.07;;;2.72;;
74064;SDS011;62421;51.412;5.432;2022-09-09T02:23:27;9.43;;;2.88;;
74064;SDS011;62421;51.412;5.432;2022-09-09T02:25:53;6.97;;;2.67;;
74064;SDS011;62421;51.412;5.432;2022-09-09T02:28:23;8.40;;;2.70;;
74064;SDS011;62421;51.412;5.432;2022-09-09T02:30:51;7.70;;;2.53;;
74064;SDS011;62421;51.412;5.432;2022-09-09T02:33:22;9.10;;;2.80;;
74064;SDS011;62421;51.412;5.432;2022-09-09T02:35:51;11.23;;;2.97;;
74064;SDS011;62421;51.412;5.432;2022-09-09T02:38:17;6.03;;;2.70;;
74064;SDS011;62421;51.412;5.432;2022-09-09T02:40:46;9.50;;;2.70;;
74064;SDS011;62421;51.412;5.432;2022-09-09T02:43:13;7.50;;;2.42;;
74064;SDS011;62421;51.412;5.432;2022-09-09T02:45:42;11.93;;;2.23;;
74064;SDS011;62421;51.412;5.432;2022-09-09T02:48:25;9.13;;;2.28;;
74064;SDS011;62421;51.412;5.432;2022-09-09T02:51:44;10.55;;;3.05;;
74064;SDS011;62421;51.412;5.432;2022-09-09T02:54:10;8.40;;;2.42;;
74064;SDS011;62421;51.412;5.432;2022-09-09T02:56:52;9.57;;;2.50;;
74064;SDS011;62421;51.412;5.432;2022-09-09T02:59:21;9.73;;;2.57;;
74064;SDS011;62421;51.412;5.432;2022-09-09T03:01:46;11.70;;;2.50;;
74064;SDS011;62421;51.412;5.432;2022-09-09T03:04:12;10.30;;;2.77;;
74064;SDS011;62421;51.412;5.432;2022-09-09T03:06:38;6.28;;;2.50;;
74064;SDS011;62421;51.412;5.432;2022-09-09T03:09:03;12.97;;;2.80;;
74064;SDS011;62421;51.412;5.432;2022-09-09T03:11:29;13.47;;;3.17;;
74064;SDS011;62421;51.412;5.432;2022-09-09T03:13:54;13.23;;;2.57;;
74064;SDS011;62421;51.412;5.432;2022-09-09T03:16:21;9.40;;;2.28;;
74064;SDS011;62421;51.412;5.432;2022-09-09T03:18:47;6.05;;;2.45;;
74064;SDS011;62421;51.412;5.432;2022-09-09T03:21:13;8.13;;;2.50;;
74064;SDS011;62421;51.412;5.432;2022-09-09T03:23:39;8.68;;;2.35;;
74064;SDS011;62421;51.412;5.432;2022-09-09T03:26:04;11.13;;;3.20;;
74064;SDS011;62421;51.412;5.432;2022-09-09T03:28:30;10.00;;;2.60;;
74064;SDS011;62421;51.412;5.432;2022-09-09T03:30:59;16.90;;;3.00;;
74064;SDS011;62421;51.412;5.432;2022-09-09T03:33:29;8.52;;;2.72;;
74064;SDS011;62421;51.412;5.432;2022-09-09T03:35:55;10.07;;;2.77;;
74064;SDS011;62421;51.412;5.432;2022-09-09T03:38:22;5.50;;;2.25;;
74064;SDS011;62421;51.412;5.432;2022-09-09T03:40:51;7.63;;;2.10;;
74064;SDS011;62421;51.412;5.432;2022-09-09T03:43:21;10.03;;;2.63;;
74064;SDS011;62421;51.412;5.432;2022-09-09T03:45:46;12.45;;;2.58;;
74064;SDS011;62421;51.412;5.432;2022-09-09T03:48:13;11.32;;;2.88;;
74064;SDS011;62421;51.412;5.432;2022-09-09T03:50:39;8.23;;;2.63;;
74064;SDS011;62421;51.412;5.432;2022-09-09T03:53:09;10.27;;;3.00;;
74064;SDS011;62421;51.412;5.432;2022-09-09T03:55:34;14.67;;;3.03;;
74064;SDS011;62421;51.412;5.432;2022-09-09T03:58:00;7.47;;;3.00;;
74064;SDS011;62421;51.412;5.432;2022-09-09T04:00:25;11.27;;;2.67;;
74064;SDS011;62421;51.412;5.432;2022-09-09T04:02:51;7.78;;;2.60;;
74064;SDS011;62421;51.412;5.432;2022-09-09T04:05:19;11.63;;;3.23;;
74064;SDS011;62421;51.412;5.432;2022-09-09T04:07:44;12.02;;;2.65;;
74064;SDS011;62421;51.412;5.432;2022-09-09T04:10:09;10.85;;;3.00;;
74064;SDS011;62421;51.412;5.432;2022-09-09T04:12:35;11.63;;;3.00;;
74064;SDS011;62421;51.412;5.432;2022-09-09T04:15:00;13.10;;;3.00;;
74064;SDS011;62421;51.412;5.432;2022-09-09T04:17:27;14.57;;;3.20;;
74064;SDS011;62421;51.412;5.432;2022-09-09T04:19:52;12.52;;;2.85;;
74064;SDS011;62421;51.412;5.432;2022-09-09T04:22:18;11.93;;;3.47;;
74064;SDS011;62421;51.412;5.432;2022-09-09T04:24:43;15.80;;;3.87;;
74064;SDS011;62421;51.412;5.432;2022-09-09T04:27:08;13.93;;;3.60;;
74064;SDS011;62421;51.412;5.432;2022-09-09T04:29:34;11.40;;;3.90;;
74064;SDS011;62421;51.412;5.432;2022-09-09T04:31:59;16.30;;;3.30;;
74064;SDS011;62421;51.412;5.432;2022-09-09T04:34:25;12.07;;;2.92;;
74064;SDS011;62421;51.412;5.432;2022-09-09T04:36:50;18.90;;;3.33;;
74064;SDS011;62421;51.412;5.432;2022-09-09T04:39:16;9.73;;;3.13;;
74064;SDS011;62421;51.412;5.432;2022-09-09T04:41:42;12.80;;;2.63;;
74064;SDS011;62421;51.412;5.432;2022-09-09T04:44:07;9.50;;;2.93;;
74064;SDS011;62421;51.412;5.432;2022-09-09T04:46:33;13.33;;;3.33;;
74064;SDS011;62421;51.412;5.432;2022-09-09T04:48:59;15.45;;;3.67;;
74064;SDS011;62421;51.412;5.432;2022-09-09T04:51:24;13.07;;;3.07;;
74064;SDS011;62421;51.412;5.432;2022-09-09T04:53:50;9.25;;;2.63;;
74064;SDS011;62421;51.412;5.432;2022-09-09T04:56:16;14.40;;;3.42;;
74064;SDS011;62421;51.412;5.432;2022-09-09T04:58:43;15.45;;;3.42;;
74064;SDS011;62421;51.412;5.432;2022-09-09T05:01:10;12.30;;;3.53;;
74064;SDS011;62421;51.412;5.432;2022-09-09T05:03:43;11.68;;;3.50;;
74064;SDS011;62421;51.412;5.432;2022-09-09T05:06:11;13.40;;;3.83;;
74064;SDS011;62421;51.412;5.432;2022-09-09T05:08:41;11.88;;;3.03;;
74064;SDS011;62421;51.412;5.432;2022-09-09T05:13:48;14.77;;;3.13;;
74064;SDS011;62421;51.412;5.432;2022-09-09T05:16:15;10.00;;;3.15;;
74064;SDS011;62421;51.412;5.432;2022-09-09T05:18:41;15.48;;;3.63;;
74064;SDS011;62421;51.412;5.432;2022-09-09T05:21:11;15.90;;;3.33;;
74064;SDS011;62421;51.412;5.432;2022-09-09T05:23:37;14.73;;;3.40;;
74064;SDS011;62421;51.412;5.432;2022-09-09T05:26:03;22.83;;;3.50;;
74064;SDS011;62421;51.412;5.432;2022-09-09T05:28:29;16.25;;;3.15;;
74064;SDS011;62421;51.412;5.432;2022-09-09T05:31:05;13.53;;;3.37;;
74064;SDS011;62421;51.412;5.432;2022-09-09T05:33:39;15.88;;;3.65;;
74064;SDS011;62421;51.412;5.432;2022-09-09T05:36:08;12.48;;;3.30;;
74064;SDS011;62421;51.412;5.432;2022-09-09T05:38:36;17.55;;;3.80;;
74064;SDS011;62421;51.412;5.432;2022-09-09T05:41:03;12.07;;;3.13;;
74064;SDS011;62421;51.412;5.432;2022-09-09T05:43:29;19.30;;;3.77;;
74064;SDS011;62421;51.412;5.432;2022-09-09T05:46:04;14.30;;;3.38;;
74064;SDS011;62421;51.412;5.432;2022-09-09T05:48:31;15.25;;;3.95;;
74064;SDS011;62421;51.412;5.432;2022-09-09T05:50:59;13.60;;;3.77;;
74064;SDS011;62421;51.412;5.432;2022-09-09T05:53:25;23.30;;;3.95;;
74064;SDS011;62421;51.412;5.432;2022-09-09T05:58:36;13.07;;;3.78;;
74064;SDS011;62421;51.412;5.432;2022-09-09T06:03:35;18.52;;;4.20;;
74064;SDS011;62421;51.412;5.432;2022-09-09T06:06:02;17.40;;;3.22;;
74064;SDS011;62421;51.412;5.432;2022-09-09T06:08:33;20.45;;;3.90;;
74064;SDS011;62421;51.412;5.432;2022-09-09T06:11:06;21.50;;;4.30;;
74064;SDS011;62421;51.412;5.432;2022-09-09T06:13:33;17.08;;;4.18;;
74064;SDS011;62421;51.412;5.432;2022-09-09T06:16:00;26.67;;;4.47;;
74064;SDS011;62421;51.412;5.432;2022-09-09T06:18:25;20.40;;;4.22;;
74064;SDS011;62421;51.412;5.432;2022-09-09T06:20:59;19.60;;;4.25;;
74064;SDS011;62421;51.412;5.432;2022-09-09T06:23:25;19.63;;;4.45;;
74064;SDS011;62421;51.412;5.432;2022-09-09T06:25:52;13.80;;;3.92;;
74064;SDS011;62421;51.412;5.432;2022-09-09T06:28:28;20.73;;;4.70;;
74064;SDS011;62421;51.412;5.432;2022-09-09T06:31:03;17.97;;;3.10;;
74064;SDS011;62421;51.412;5.432;2022-09-09T06:33:31;19.23;;;3.45;;
74064;SDS011;62421;51.412;5.432;2022-09-09T06:36:06;17.20;;;3.80;;
74064;SDS011;62421;51.412;5.432;2022-09-09T06:38:39;20.73;;;3.63;;
74064;SDS011;62421;51.412;5.432;2022-09-09T06:41:05;15.95;;;3.70;;
74064;SDS011;62421;51.412;5.432;2022-09-09T06:43:31;16.87;;;3.70;;
74064;SDS011;62421;51.412;5.432;2022-09-09T06:45:57;15.60;;;4.07;;
74064;SDS011;62421;51.412;5.432;2022-09-09T06:48:31;17.23;;;3.55;;
74064;SDS011;62421;51.412;5.432;2022-09-09T06:51:01;22.05;;;4.07;;
74064;SDS011;62421;51.412;5.432;2022-09-09T06:53:27;16.40;;;4.18;;
74064;SDS011;62421;51.412;5.432;2022-09-09T06:55:52;20.20;;;3.80;;
74064;SDS011;62421;51.412;5.432;2022-09-09T06:58:19;20.25;;;4.07;;
74064;SDS011;62421;51.412;5.432;2022-09-09T07:00:46;21.85;;;5.05;;
74064;SDS011;62421;51.412;5.432;2022-09-09T07:03:12;15.48;;;3.85;;
74064;SDS011;62421;51.412;5.432;2022-09-09T07:05:38;17.80;;;4.50;;
74064;SDS011;62421;51.412;5.432;2022-09-09T07:08:03;20.17;;;4.03;;
74064;SDS011;62421;51.412;5.432;2022-09-09T07:10:29;15.97;;;4.00;;
74064;SDS011;62421;51.412;5.432;2022-09-09T07:12:54;13.07;;;3.67;;
74064;SDS011;62421;51.412;5.432;2022-09-09T07:15:19;12.02;;;3.85;;
74064;SDS011;62421;51.412;5.432;2022-09-09T07:17:46;20.10;;;4.25;;
74064;SDS011;62421;51.412;5.432;2022-09-09T07:20:13;12.32;;;4.07;;
74064;SDS011;62421;51.412;5.432;2022-09-09T07:22:39;12.77;;;3.10;;
74064;SDS011;62421;51.412;5.432;2022-09-09T07:25:05;16.00;;;3.20;;
74064;SDS011;62421;51.412;5.432;2022-09-09T07:27:31;17.05;;;3.53;;
74064;SDS011;62421;51.412;5.432;2022-09-09T07:29:56;15.70;;;3.40;;
74064;SDS011;62421;51.412;5.432;2022-09-09T07:32:22;12.27;;;3.00;;
74064;SDS011;62421;51.412;5.432;2022-09-09T07:34:47;15.20;;;3.40;;
74064;SDS011;62421;51.412;5.432;2022-09-09T07:37:15;15.05;;;3.10;;
74064;SDS011;62421;51.412;5.432;2022-09-09T07:39:41;15.93;;;2.93;;
74064;SDS011;62421;51.412;5.432;2022-09-09T07:42:07;35.63;;;10.65;;
74064;SDS011;62421;51.412;5.432;2022-09-09T07:44:34;21.50;;;3.40;;
74064;SDS011;62421;51.412;5.432;2022-09-09T07:47:01;16.13;;;2.78;;
74064;SDS011;62421;51.412;5.432;2022-09-09T07:49:27;11.53;;;3.07;;
74064;SDS011;62421;51.412;5.432;2022-09-09T07:51:53;16.38;;;3.15;;
74064;SDS011;62421;51.412;5.432;2022-09-09T07:54:18;12.90;;;2.50;;
74064;SDS011;62421;51.412;5.432;2022-09-09T07:56:45;14.15;;;2.97;;
74064;SDS011;62421;51.412;5.432;2022-09-09T07:59:11;16.47;;;2.53;;
74064;SDS011;62421;51.412;5.432;2022-09-09T08:01:38;15.73;;;2.88;;
74064;SDS011;62421;51.412;5.432;2022-09-09T08:04:09;15.87;;;2.57;;
74064;SDS011;62421;51.412;5.432;2022-09-09T08:06:40;10.23;;;2.63;;
74064;SDS011;62421;51.412;5.432;2022-09-09T08:09:08;10.48;;;2.60;;
74064;SDS011;62421;51.412;5.432;2022-09-09T08:11:34;10.02;;;2.83;;
74064;SDS011;62421;51.412;5.432;2022-09-09T08:14:01;10.13;;;2.65;;
74064;SDS011;62421;51.412;5.432;2022-09-09T08:16:31;11.00;;;2.60;;
74064;SDS011;62421;51.412;5.432;2022-09-09T08:18:59;13.00;;;2.80;;
74064;SDS011;62421;51.412;5.432;2022-09-09T08:21:28;13.98;;;2.90;;
74064;SDS011;62421;51.412;5.432;2022-09-09T08:23:55;10.13;;;2.90;;
74064;SDS011;62421;51.412;5.432;2022-09-09T08:26:22;15.23;;;2.53;;
74064;SDS011;62421;51.412;5.432;2022-09-09T08:28:50;14.93;;;2.33;;
74064;SDS011;62421;51.412;5.432;2022-09-09T08:31:18;10.90;;;2.33;;
74064;SDS011;62421;51.412;5.432;2022-09-09T08:33:43;10.50;;;2.33;;
74064;SDS011;62421;51.412;5.432;2022-09-09T08:36:11;11.27;;;2.40;;
74064;SDS011;62421;51.412;5.432;2022-09-09T08:38:40;13.38;;;2.20;;
74064;SDS011;62421;51.412;5.432;2022-09-09T08:41:10;11.38;;;2.08;;
74064;SDS011;62421;51.412;5.432;2022-09-09T08:44:00;16.17;;;2.78;;
74064;SDS011;62421;51.412;5.432;2022-09-09T08:49:19;11.05;;;2.88;;
74064;SDS011;62421;51.412;5.432;2022-09-09T08:52:00;14.57;;;3.00;;
74064;SDS011;62421;51.412;5.432;2022-09-09T08:54:28;10.48;;;2.20;;
74064;SDS011;62421;51.412;5.432;2022-09-09T08:56:59;14.32;;;3.08;;
74064;SDS011;62421;51.412;5.432;2022-09-09T08:59:25;13.17;;;2.40;;
74064;SDS011;62421;51.412;5.432;2022-09-09T09:01:59;11.83;;;1.80;;
74064;SDS011;62421;51.412;5.432;2022-09-09T09:04:56;10.88;;;2.08;;
74064;SDS011;62421;51.412;5.432;2022-09-09T09:07:32;15.57;;;2.35;;
74064;SDS011;62421;51.412;5.432;2022-09-09T09:12:35;15.95;;;2.65;;
74064;SDS011;62421;51.412;5.432;2022-09-09T09:15:20;9.98;;;2.30;;
74064;SDS011;62421;51.412;5.432;2022-09-09T09:17:48;11.10;;;1.95;;
74064;SDS011;62421;51.412;5.432;2022-09-09T09:20:15;16.52;;;2.10;;
74064;SDS011;62421;51.412;5.432;2022-09-09T09:25:22;11.77;;;1.88;;
74064;SDS011;62421;51.412;5.432;2022-09-09T09:30:52;15.63;;;2.17;;
74064;SDS011;62421;51.412;5.432;2022-09-09T09:33:20;8.98;;;2.38;;
74064;SDS011;62421;51.412;5.432;2022-09-09T09:35:51;14.37;;;2.03;;
74064;SDS011;62421;51.412;5.432;2022-09-09T09:38:22;17.98;;;2.85;;
74064;SDS011;62421;51.412;5.432;2022-09-09T09:40:53;17.48;;;2.15;;
74064;SDS011;62421;51.412;5.432;2022-09-09T09:43:39;15.88;;;2.35;;
74064;SDS011;62421;51.412;5.432;2022-09-09T09:46:18;11.40;;;2.33;;
74064;SDS011;62421;51.412;5.432;2022-09-09T09:49:01;9.73;;;1.43;;
74064;SDS011;62421;51.412;5.432;2022-09-09T09:51:33;11.90;;;2.45;;
74064;SDS011;62421;51.412;5.432;2022-09-09T09:56:38;11.10;;;2.17;;
74064;SDS011;62421;51.412;5.432;2022-09-09T09:59:05;14.13;;;3.00;;
74064;SDS011;62421;51.412;5.432;2022-09-09T10:01:44;11.17;;;2.67;;
74064;SDS011;62421;51.412;5.432;2022-09-09T10:04:14;9.90;;;1.92;;
74064;SDS011;62421;51.412;5.432;2022-09-09T10:06:41;11.60;;;2.35;;
74064;SDS011;62421;51.412;5.432;2022-09-09T10:09:25;10.90;;;2.63;;
74064;SDS011;62421;51.412;5.432;2022-09-09T10:22:35;14.47;;;2.43;;
74064;SDS011;62421;51.412;5.432;2022-09-09T10:25:13;9.80;;;2.08;;
74064;SDS011;62421;51.412;5.432;2022-09-09T10:33:37;8.13;;;1.92;;
74064;SDS011;62421;51.412;5.432;2022-09-09T10:38:46;16.70;;;3.05;;
74064;SDS011;62421;51.412;5.432;2022-09-09T10:41:34;13.38;;;3.42;;
74064;SDS011;62421;51.412;5.432;2022-09-09T10:44:37;16.20;;;2.75;;
74064;SDS011;62421;51.412;5.432;2022-09-09T10:47:32;13.40;;;2.58;;
74064;SDS011;62421;51.412;5.432;2022-09-09T10:55:41;9.93;;;2.58;;
74064;SDS011;62421;51.412;5.432;2022-09-09T10:58:10;11.43;;;2.83;;
74064;SDS011;62421;51.412;5.432;2022-09-09T11:00:42;12.77;;;2.40;;
74064;SDS011;62421;51.412;5.432;2022-09-09T11:03:21;8.40;;;2.20;;
74064;SDS011;62421;51.412;5.432;2022-09-09T11:06:00;11.88;;;2.63;;
74064;SDS011;62421;51.412;5.432;2022-09-09T11:08:38;7.47;;;2.15;;
74064;SDS011;62421;51.412;5.432;2022-09-09T11:17:14;7.57;;;1.50;;
74064;SDS011;62421;51.412;5.432;2022-09-09T11:19:42;9.05;;;2.15;;
74064;SDS011;62421;51.412;5.432;2022-09-09T11:25:05;5.97;;;1.73;;
74064;SDS011;62421;51.412;5.432;2022-09-09T11:30:23;7.97;;;2.43;;
74064;SDS011;62421;51.412;5.432;2022-09-09T11:36:03;8.88;;;2.13;;
74064;SDS011;62421;51.412;5.432;2022-09-09T11:41:52;10.68;;;1.55;;
74064;SDS011;62421;51.412;5.432;2022-09-09T11:44:19;11.63;;;1.87;;
74064;SDS011;62421;51.412;5.432;2022-09-09T11:46:54;9.07;;;1.80;;
74064;SDS011;62421;51.412;5.432;2022-09-09T11:49:30;9.13;;;2.23;;
74064;SDS011;62421;51.412;5.432;2022-09-09T11:52:20;9.07;;;2.30;;
74064;SDS011;62421;51.412;5.432;2022-09-09T11:55:00;10.20;;;2.53;;
74064;SDS011;62421;51.412;5.432;2022-09-09T11:58:01;7.30;;;1.90;;
74064;SDS011;62421;51.412;5.432;2022-09-09T12:00:29;8.73;;;2.20;;
74064;SDS011;62421;51.412;5.432;2022-09-09T12:03:02;8.70;;;2.10;;
74064;SDS011;62421;51.412;5.432;2022-09-09T12:05:41;8.15;;;2.15;;
74064;SDS011;62421;51.412;5.432;2022-09-09T12:08:10;7.35;;;1.75;;
74064;SDS011;62421;51.412;5.432;2022-09-09T12:10:52;9.85;;;2.28;;
74064;SDS011;62421;51.412;5.432;2022-09-09T12:13:23;10.43;;;2.07;;
74064;SDS011;62421;51.412;5.432;2022-09-09T12:15:59;11.07;;;2.63;;
74064;SDS011;62421;51.412;5.432;2022-09-09T12:18:36;6.60;;;2.40;;
74064;SDS011;62421;51.412;5.432;2022-09-09T12:21:33;7.30;;;2.22;;
74064;SDS011;62421;51.412;5.432;2022-09-09T12:26:40;8.30;;;1.70;;
74064;SDS011;62421;51.412;5.432;2022-09-09T12:32:17;9.07;;;1.65;;
74064;SDS011;62421;51.412;5.432;2022-09-09T12:34:49;6.22;;;1.67;;
74064;SDS011;62421;51.412;5.432;2022-09-09T12:37:31;10.27;;;2.28;;
74064;SDS011;62421;51.412;5.432;2022-09-09T12:40:01;9.37;;;1.93;;
74064;SDS011;62421;51.412;5.432;2022-09-09T12:42:31;8.45;;;2.05;;
74064;SDS011;62421;51.412;5.432;2022-09-09T12:45:00;8.98;;;2.10;;
74064;SDS011;62421;51.412;5.432;2022-09-09T12:47:30;9.05;;;2.10;;
74064;SDS011;62421;51.412;5.432;2022-09-09T12:50:18;11.93;;;2.00;;
74064;SDS011;62421;51.412;5.432;2022-09-09T12:52:46;7.67;;;1.60;;
74064;SDS011;62421;51.412;5.432;2022-09-09T12:55:16;10.15;;;2.25;;
74064;SDS011;62421;51.412;5.432;2022-09-09T12:57:46;7.78;;;2.10;;
74064;SDS011;62421;51.412;5.432;2022-09-09T13:00:20;8.18;;;2.33;;
74064;SDS011;62421;51.412;5.432;2022-09-09T13:05:14;9.27;;;1.80;;
74064;SDS011;62421;51.412;5.432;2022-09-09T13:07:41;7.93;;;1.60;;
74064;SDS011;62421;51.412;5.432;2022-09-09T13:10:10;6.72;;;1.60;;
74064;SDS011;62421;51.412;5.432;2022-09-09T13:12:36;8.30;;;1.60;;
74064;SDS011;62421;51.412;5.432;2022-09-09T13:15:02;6.75;;;1.48;;
74064;SDS011;62421;51.412;5.432;2022-09-09T13:17:28;7.93;;;1.57;;
74064;SDS011;62421;51.412;5.432;2022-09-09T13:19:54;9.77;;;2.00;;
74064;SDS011;62421;51.412;5.432;2022-09-09T13:22:22;5.38;;;1.63;;
74064;SDS011;62421;51.412;5.432;2022-09-09T13:27:50;8.13;;;1.35;;
74064;SDS011;62421;51.412;5.432;2022-09-09T13:35:30;8.02;;;2.20;;
74064;SDS011;62421;51.412;5.432;2022-09-09T13:37:56;8.83;;;1.90;;
74064;SDS011;62421;51.412;5.432;2022-09-09T13:40:23;8.27;;;1.70;;
74064;SDS011;62421;51.412;5.432;2022-09-09T13:42:54;7.88;;;1.77;;
74064;SDS011;62421;51.412;5.432;2022-09-09T13:45:21;7.82;;;1.70;;
74064;SDS011;62421;51.412;5.432;2022-09-09T13:47:51;7.63;;;1.58;;
74064;SDS011;62421;51.412;5.432;2022-09-09T13:50:27;6.97;;;1.40;;
74064;SDS011;62421;51.412;5.432;2022-09-09T13:52:54;10.07;;;1.88;;
74064;SDS011;62421;51.412;5.432;2022-09-09T13:55:23;9.35;;;2.08;;
74064;SDS011;62421;51.412;5.432;2022-09-09T13:57:56;7.15;;;1.50;;
74064;SDS011;62421;51.412;5.432;2022-09-09T14:00:25;6.10;;;1.48;;
74064;SDS011;62421;51.412;5.432;2022-09-09T14:02:51;5.73;;;1.50;;
74064;SDS011;62421;51.412;5.432;2022-09-09T14:05:17;6.82;;;1.17;;
74064;SDS011;62421;51.412;5.432;2022-09-09T14:07:44;6.82;;;1.60;;
74064;SDS011;62421;51.412;5.432;2022-09-09T14:10:10;7.17;;;1.40;;
74064;SDS011;62421;51.412;5.432;2022-09-09T14:12:36;9.52;;;1.55;;
74064;SDS011;62421;51.412;5.432;2022-09-09T14:15:02;6.40;;;1.58;;
74064;SDS011;62421;51.412;5.432;2022-09-09T14:17:28;8.13;;;1.52;;
74064;SDS011;62421;51.412;5.432;2022-09-09T14:19:55;10.15;;;1.92;;
74064;SDS011;62421;51.412;5.432;2022-09-09T14:22:21;7.30;;;2.13;;
74064;SDS011;62421;51.412;5.432;2022-09-09T14:24:46;7.67;;;1.87;;
74064;SDS011;62421;51.412;5.432;2022-09-09T14:27:12;6.90;;;1.73;;
74064;SDS011;62421;51.412;5.432;2022-09-09T14:29:37;5.78;;;1.50;;
74064;SDS011;62421;51.412;5.432;2022-09-09T14:32:02;8.87;;;1.83;;
74064;SDS011;62421;51.412;5.432;2022-09-09T14:34:28;5.60;;;1.40;;
74064;SDS011;62421;51.412;5.432;2022-09-09T14:36:53;5.03;;;1.53;;
74064;SDS011;62421;51.412;5.432;2022-09-09T14:39:19;6.20;;;1.67;;
74064;SDS011;62421;51.412;5.432;2022-09-09T14:41:44;6.00;;;1.70;;
74064;SDS011;62421;51.412;5.432;2022-09-09T14:44:10;7.60;;;2.03;;
74064;SDS011;62421;51.412;5.432;2022-09-09T14:46:36;5.73;;;1.60;;
74064;SDS011;62421;51.412;5.432;2022-09-09T14:49:01;6.93;;;1.50;;
74064;SDS011;62421;51.412;5.432;2022-09-09T14:51:27;6.22;;;1.13;;
74064;SDS011;62421;51.412;5.432;2022-09-09T14:53:54;6.65;;;1.80;;
74064;SDS011;62421;51.412;5.432;2022-09-09T14:56:23;5.87;;;1.67;;
74064;SDS011;62421;51.412;5.432;2022-09-09T14:58:53;5.60;;;1.38;;
74064;SDS011;62421;51.412;5.432;2022-09-09T15:01:20;6.03;;;1.48;;
74064;SDS011;62421;51.412;5.432;2022-09-09T15:03:52;4.68;;;1.30;;
74064;SDS011;62421;51.412;5.432;2022-09-09T15:06:23;8.03;;;1.53;;
74064;SDS011;62421;51.412;5.432;2022-09-09T15:08:50;9.30;;;1.60;;
74064;SDS011;62421;51.412;5.432;2022-09-09T15:11:17;7.32;;;1.10;;
74064;SDS011;62421;51.412;5.432;2022-09-09T15:13:43;5.82;;;1.40;;
74064;SDS011;62421;51.412;5.432;2022-09-09T15:16:10;5.87;;;1.33;;
74064;SDS011;62421;51.412;5.432;2022-09-09T15:18:37;5.20;;;1.75;;
74064;SDS011;62421;51.412;5.432;2022-09-09T15:21:07;9.70;;;1.50;;
74064;SDS011;62421;51.412;5.432;2022-09-09T15:23:44;6.53;;;1.27;;
74064;SDS011;62421;51.412;5.432;2022-09-09T15:26:10;5.60;;;1.05;;
74064;SDS011;62421;51.412;5.432;2022-09-09T15:28:36;6.37;;;1.37;;
74064;SDS011;62421;51.412;5.432;2022-09-09T15:31:13;6.28;;;1.25;;
74064;SDS011;62421;51.412;5.432;2022-09-09T15:33:45;9.15;;;1.58;;
74064;SDS011;62421;51.412;5.432;2022-09-09T15:36:14;6.03;;;1.25;;
74064;SDS011;62421;51.412;5.432;2022-09-09T15:38:43;7.82;;;1.45;;
74064;SDS011;62421;51.412;5.432;2022-09-09T15:41:10;6.83;;;1.60;;
74064;SDS011;62421;51.412;5.432;2022-09-09T15:43:37;7.80;;;1.65;;
74064;SDS011;62421;51.412;5.432;2022-09-09T15:48:53;7.28;;;1.73;;
74064;SDS011;62421;51.412;5.432;2022-09-09T15:51:20;6.78;;;1.50;;
74064;SDS011;62421;51.412;5.432;2022-09-09T15:53:46;7.93;;;1.50;;
74064;SDS011;62421;51.412;5.432;2022-09-09T15:56:11;5.40;;;1.58;;
74064;SDS011;62421;51.412;5.432;2022-09-09T15:58:36;8.90;;;1.70;;
74064;SDS011;62421;51.412;5.432;2022-09-09T16:01:08;6.00;;;1.70;;
74064;SDS011;62421;51.412;5.432;2022-09-09T16:03:36;9.63;;;1.58;;
74064;SDS011;62421;51.412;5.432;2022-09-09T16:06:03;6.78;;;1.85;;
74064;SDS011;62421;51.412;5.432;2022-09-09T16:08:36;6.30;;;1.37;;
74064;SDS011;62421;51.412;5.432;2022-09-09T16:11:07;6.53;;;1.60;;
74064;SDS011;62421;51.412;5.432;2022-09-09T16:13:34;6.75;;;1.63;;
74064;SDS011;62421;51.412;5.432;2022-09-09T16:16:04;10.63;;;1.88;;
74064;SDS011;62421;51.412;5.432;2022-09-09T16:18:37;7.20;;;1.85;;
74064;SDS011;62421;51.412;5.432;2022-09-09T16:21:05;6.33;;;1.37;;
74064;SDS011;62421;51.412;5.432;2022-09-09T16:23:34;5.88;;;1.83;;
74064;SDS011;62421;51.412;5.432;2022-09-09T16:26:00;8.32;;;2.00;;
74064;SDS011;62421;51.412;5.432;2022-09-09T16:28:26;10.60;;;2.35;;
74064;SDS011;62421;51.412;5.432;2022-09-09T16:30:52;11.88;;;1.92;;
74064;SDS011;62421;51.412;5.432;2022-09-09T16:33:18;8.40;;;1.87;;
74064;SDS011;62421;51.412;5.432;2022-09-09T16:35:43;9.33;;;2.50;;
74064;SDS011;62421;51.412;5.432;2022-09-09T16:38:09;8.25;;;1.58;;
74064;SDS011;62421;51.412;5.432;2022-09-09T16:40:35;12.63;;;1.93;;
74064;SDS011;62421;51.412;5.432;2022-09-09T16:43:01;13.70;;;1.85;;
74064;SDS011;62421;51.412;5.432;2022-09-09T16:45:27;19.30;;;2.35;;
74064;SDS011;62421;51.412;5.432;2022-09-09T16:47:52;12.05;;;1.80;;
74064;SDS011;62421;51.412;5.432;2022-09-09T16:50:18;5.93;;;1.47;;
74064;SDS011;62421;51.412;5.432;2022-09-09T16:52:44;6.72;;;1.33;;
74064;SDS011;62421;51.412;5.432;2022-09-09T16:55:09;6.77;;;1.40;;
74064;SDS011;62421;51.412;5.432;2022-09-09T16:57:34;5.33;;;1.00;;
74064;SDS011;62421;51.412;5.432;2022-09-09T17:00:00;5.47;;;1.17;;
74064;SDS011;62421;51.412;5.432;2022-09-09T17:02:29;6.78;;;1.65;;
74064;SDS011;62421;51.412;5.432;2022-09-09T17:04:55;5.97;;;1.43;;